createdAt,value
2022-08-02T00:01:21.851Z,16.80
2022-08-02T00:04:08.453Z,16.90
2022-08-02T00:06:54.297Z,17.00
2022-08-02T00:09:40.517Z,17.00
2022-08-02T00:12:27.289Z,17.00
2022-08-02T00:15:16.362Z,17.00
2022-08-02T00:18:02.802Z,17.00
2022-08-02T00:20:49.383Z,17.00
2022-08-02T00:24:03.192Z,16.90
2022-08-02T00:26:41.682Z,16.90
2022-08-02T00:29:27.913Z,16.90
2022-08-02T00:32:14.028Z,16.90
2022-08-02T00:35:00.385Z,17.00
2022-08-02T00:37:46.392Z,17.10
2022-08-02T00:40:32.572Z,17.10
2022-08-02T00:43:19.289Z,17.20
2022-08-02T00:46:05.342Z,17.20
2022-08-02T00:48:51.547Z,17.10
2022-08-02T00:51:37.642Z,17.10
2022-08-02T00:54:23.967Z,17.00
2022-08-02T00:57:10.018Z,17.00
2022-08-02T00:59:56.252Z,17.10
2022-08-02T01:02:42.694Z,17.20
2022-08-02T01:05:28.941Z,17.30
2022-08-02T01:08:15.195Z,17.30
2022-08-02T01:11:01.873Z,17.30
2022-08-02T01:13:48.141Z,17.30
2022-08-02T01:16:43.090Z,17.20
2022-08-02T01:19:42.464Z,17.30
2022-08-02T01:23:03.123Z,17.30
2022-08-02T01:26:01.456Z,17.30
2022-08-02T01:28:51.181Z,17.20
2022-08-02T01:31:50.475Z,17.10
2022-08-02T01:34:41.165Z,17.10
2022-08-02T01:37:39.701Z,17.10
2022-08-02T01:40:32.359Z,17.10
2022-08-02T01:43:21.499Z,17.10
2022-08-02T01:46:09.451Z,17.10
2022-08-02T01:48:58.051Z,17.10
2022-08-02T01:52:05.777Z,17.20
2022-08-02T01:55:09.761Z,17.30
2022-08-02T01:58:00.546Z,17.40
2022-08-02T02:00:48.247Z,17.40
2022-08-02T02:03:41.747Z,17.30
2022-08-02T02:06:28.802Z,17.10
2022-08-02T02:09:15.622Z,17.00
2022-08-02T02:12:13.471Z,16.80
2022-08-02T02:15:02.113Z,16.70
2022-08-02T02:18:12.614Z,16.70
2022-08-02T02:20:58.657Z,16.70
2022-08-02T02:23:45.073Z,16.80
2022-08-02T02:26:32.060Z,16.90
2022-08-02T02:29:21.858Z,17.00
2022-08-02T02:32:08.896Z,17.00
2022-08-02T02:34:56.745Z,17.00
2022-08-02T02:37:44.748Z,17.10
2022-08-02T02:40:32.826Z,17.10
2022-08-02T02:43:20.447Z,17.20
2022-08-02T02:46:08.365Z,17.20
2022-08-02T02:48:55.200Z,17.20
2022-08-02T02:51:42.211Z,17.20
2022-08-02T02:54:34.194Z,17.20
2022-08-02T02:57:22.405Z,17.20
2022-08-02T03:00:14.245Z,17.10
2022-08-02T03:03:00.499Z,17.10
2022-08-02T03:05:46.429Z,17.10
2022-08-02T03:08:32.549Z,17.20
2022-08-02T03:11:20.097Z,17.20
2022-08-02T03:14:10.010Z,17.30
2022-08-02T03:16:56.268Z,17.40
2022-08-02T03:19:42.356Z,17.40
2022-08-02T03:22:28.213Z,17.40
2022-08-02T03:25:15.467Z,17.30
2022-08-02T03:28:01.681Z,17.20
2022-08-02T03:30:47.521Z,17.00
2022-08-02T03:33:34.337Z,16.80
2022-08-02T03:36:23.726Z,16.70
2022-08-02T03:39:12.706Z,16.50
2022-08-02T03:41:59.290Z,16.50
2022-08-02T03:44:45.787Z,16.40
2022-08-02T03:47:33.372Z,16.40
2022-08-02T03:50:22.929Z,16.40
2022-08-02T03:53:09.850Z,16.30
2022-08-02T03:56:06.925Z,16.50
2022-08-02T03:59:15.100Z,16.50
2022-08-02T04:02:03.450Z,16.60
2022-08-02T04:04:50.038Z,16.60
2022-08-02T04:08:34.930Z,16.60
2022-08-02T04:11:01.382Z,16.70
2022-08-02T04:13:47.705Z,16.80
2022-08-02T04:16:50.243Z,16.80
2022-08-02T04:19:47.089Z,17.00
2022-08-02T04:22:43.014Z,17.20
2022-08-02T04:25:35.402Z,17.30
2022-08-02T04:28:27.611Z,17.40
2022-08-02T04:31:17.359Z,17.50
2022-08-02T04:34:04.093Z,17.50
2022-08-02T04:36:50.316Z,17.50
2022-08-02T04:39:36.534Z,17.40
2022-08-02T04:42:26.766Z,17.40
2022-08-02T04:45:16.514Z,17.50
2022-08-02T04:48:05.370Z,17.50
2022-08-02T04:50:52.335Z,17.50
2022-08-02T04:53:38.530Z,17.60
2022-08-02T04:56:24.494Z,17.60
2022-08-02T04:59:12.373Z,17.70
2022-08-02T05:01:58.522Z,17.70
2022-08-02T05:04:44.331Z,17.50
2022-08-02T05:07:30.343Z,17.40
2022-08-02T05:10:22.759Z,17.30
2022-08-02T05:13:08.738Z,17.30
2022-08-02T05:15:54.575Z,17.30
2022-08-02T05:18:40.608Z,17.40
2022-08-02T05:21:26.530Z,17.40
2022-08-02T05:24:12.536Z,17.40
2022-08-02T05:26:59.154Z,17.40
2022-08-02T05:29:53.917Z,17.40
2022-08-02T05:32:49.046Z,17.30
2022-08-02T05:35:35.213Z,17.20
2022-08-02T05:38:23.502Z,17.30
2022-08-02T05:41:12.002Z,17.40
2022-08-02T05:43:58.124Z,17.50
2022-08-02T05:46:44.090Z,17.60
2022-08-02T05:49:30.196Z,17.70
2022-08-02T05:52:19.425Z,17.60
2022-08-02T05:55:30.413Z,17.60
2022-08-02T05:59:00.191Z,17.50
2022-08-02T06:01:49.138Z,17.60
2022-08-02T06:05:04.762Z,17.60
2022-08-02T06:07:51.361Z,17.70
2022-08-02T06:10:39.752Z,17.80
2022-08-02T06:13:26.066Z,18.00
2022-08-02T06:16:14.306Z,18.10
2022-08-02T06:19:02.477Z,18.20
2022-08-02T06:22:32.906Z,18.30
2022-08-02T06:24:56.762Z,18.30
2022-08-02T06:27:43.505Z,18.30
2022-08-02T06:30:30.057Z,18.30
2022-08-02T06:33:16.767Z,18.20
2022-08-02T06:36:27.768Z,18.20
2022-08-02T06:39:48.145Z,18.20
2022-08-02T06:42:52.551Z,18.30
2022-08-02T06:45:39.098Z,18.40
2022-08-02T06:48:25.204Z,18.50
2022-08-02T06:51:12.229Z,18.50
2022-08-02T06:53:58.469Z,18.60
2022-08-02T06:56:44.506Z,18.80
2022-08-02T06:59:30.424Z,18.90
2022-08-02T07:02:16.517Z,19.00
2022-08-02T07:05:03.490Z,19.10
2022-08-02T07:07:49.612Z,19.20
2022-08-02T07:10:35.558Z,19.30
2022-08-02T07:13:21.669Z,19.40
2022-08-02T07:16:07.934Z,19.50
2022-08-02T07:18:54.093Z,19.60
2022-08-02T07:21:56.513Z,19.80
2022-08-02T07:24:45.667Z,19.90
2022-08-02T07:27:34.928Z,20.00
2022-08-02T07:30:23.361Z,20.10
2022-08-02T07:33:38.687Z,20.30
2022-08-02T07:36:26.701Z,20.40
2022-08-02T07:39:13.130Z,20.40
2022-08-02T07:41:59.704Z,20.40
2022-08-02T07:44:49.132Z,20.40
2022-08-02T07:47:40.305Z,20.50
2022-08-02T07:50:28.266Z,20.60
2022-08-02T07:53:14.810Z,20.70
2022-08-02T07:56:01.203Z,20.80
2022-08-02T07:58:47.162Z,20.90
2022-08-02T08:01:33.241Z,21.00
2022-08-02T08:04:20.078Z,21.10
2022-08-02T08:07:07.662Z,21.20
2022-08-02T08:09:56.264Z,21.30
2022-08-02T08:12:43.104Z,21.50
2022-08-02T08:15:29.038Z,21.60
2022-08-02T08:18:14.952Z,21.80
2022-08-02T08:21:00.949Z,21.90
2022-08-02T08:23:50.737Z,22.10
2022-08-02T08:26:36.594Z,22.20
2022-08-02T08:29:24.055Z,22.30
2022-08-02T08:32:15.720Z,22.40
2022-08-02T08:35:04.008Z,22.30
2022-08-02T08:37:50.137Z,22.30
2022-08-02T08:40:37.191Z,22.30
2022-08-02T08:43:24.590Z,22.40
2022-08-02T08:46:12.095Z,22.60
2022-08-02T08:49:06.670Z,22.80
2022-08-02T08:51:56.198Z,22.90
2022-08-02T08:54:44.199Z,22.90
2022-08-02T08:57:37.029Z,22.70
2022-08-02T09:00:23.320Z,22.70
2022-08-02T09:03:10.010Z,22.70
2022-08-02T09:05:58.307Z,22.70
2022-08-02T09:08:44.658Z,22.70
2022-08-02T09:11:31.029Z,22.80
2022-08-02T09:14:29.169Z,22.90
2022-08-02T09:17:15.511Z,23.10
2022-08-02T09:20:09.065Z,23.30
2022-08-02T09:23:08.818Z,23.50
2022-08-02T09:26:04.516Z,23.60
2022-08-02T09:29:00.890Z,23.70
2022-08-02T09:31:50.043Z,23.90
2022-08-02T09:34:55.263Z,24.00
2022-08-02T09:37:42.065Z,24.20
2022-08-02T09:40:37.378Z,24.30
2022-08-02T09:44:03.871Z,24.50
2022-08-02T09:46:48.023Z,24.80
2022-08-02T09:49:33.991Z,25.10
2022-08-02T09:52:43.072Z,25.00
2022-08-02T09:55:30.144Z,24.80
2022-08-02T09:58:20.514Z,24.80
2022-08-02T10:01:06.818Z,25.00
2022-08-02T10:03:58.588Z,25.10
2022-08-02T10:06:44.928Z,25.10
2022-08-02T10:09:31.215Z,25.00
2022-08-02T10:12:17.731Z,25.00
2022-08-02T10:15:04.653Z,25.30
2022-08-02T10:17:50.680Z,25.70
2022-08-02T10:20:44.086Z,26.10
2022-08-02T10:23:36.420Z,26.40
2022-08-02T10:26:22.965Z,26.60
2022-08-02T10:29:10.145Z,26.80
2022-08-02T10:32:01.562Z,26.90
2022-08-02T10:34:58.700Z,27.10
2022-08-02T10:38:09.061Z,27.40
2022-08-02T10:40:56.205Z,27.50
2022-08-02T10:43:44.948Z,27.60
2022-08-02T10:46:34.197Z,27.70
2022-08-02T10:49:39.829Z,27.50
2022-08-02T10:52:28.401Z,27.10
2022-08-02T10:55:22.168Z,26.90
2022-08-02T10:58:21.595Z,27.10
2022-08-02T11:01:38.717Z,27.20
2022-08-02T11:04:26.894Z,27.10
2022-08-02T11:07:22.056Z,27.00
2022-08-02T11:10:26.386Z,27.00
2022-08-02T11:13:17.906Z,27.20
2022-08-02T11:16:11.143Z,27.30
2022-08-02T11:18:57.427Z,27.40
2022-08-02T11:22:02.914Z,27.40
2022-08-02T11:24:49.025Z,27.10
2022-08-02T11:27:35.754Z,26.90
2022-08-02T11:30:26.736Z,26.80
2022-08-02T11:33:14.164Z,26.70
2022-08-02T11:36:07.346Z,26.60
2022-08-02T11:39:13.713Z,26.70
2022-08-02T11:42:02.419Z,26.90
2022-08-02T11:44:49.268Z,26.80
2022-08-02T11:47:55.410Z,26.80
2022-08-02T11:50:41.805Z,26.90
2022-08-02T11:53:27.734Z,27.00
2022-08-02T11:56:24.112Z,27.30
2022-08-02T11:59:14.406Z,27.50
2022-08-02T12:02:00.733Z,27.60
2022-08-02T12:05:00.734Z,27.70
2022-08-02T12:07:48.641Z,27.90
2022-08-02T12:10:34.667Z,28.10
2022-08-02T12:13:20.707Z,28.20
2022-08-02T12:16:30.635Z,28.40
2022-08-02T12:19:19.496Z,28.50
2022-08-02T12:22:13.388Z,28.50
2022-08-02T12:24:59.961Z,28.50
2022-08-02T12:27:46.527Z,28.60
2022-08-02T12:30:58.050Z,28.70
2022-08-02T12:33:52.949Z,28.80
2022-08-02T12:36:39.957Z,28.80
2022-08-02T12:39:36.926Z,28.80
2022-08-02T12:42:23.098Z,28.90
2022-08-02T12:45:09.390Z,28.90
2022-08-02T12:47:57.821Z,28.90
2022-08-02T12:50:44.677Z,28.80
2022-08-02T12:53:34.313Z,28.60
2022-08-02T12:56:31.605Z,28.80
2022-08-02T12:59:39.049Z,29.00
2022-08-02T13:02:25.603Z,29.10
2022-08-02T13:05:11.656Z,29.30
2022-08-02T13:07:59.302Z,29.60
2022-08-02T13:10:45.636Z,29.60
2022-08-02T13:13:31.517Z,29.70
2022-08-02T13:16:17.789Z,29.40
2022-08-02T13:19:17.290Z,29.30
2022-08-02T13:22:03.881Z,29.40
2022-08-02T13:24:55.649Z,29.50
2022-08-02T13:27:42.480Z,29.70
2022-08-02T13:30:28.490Z,29.50
2022-08-02T13:33:15.485Z,29.20
2022-08-02T13:36:01.721Z,29.10
2022-08-02T13:38:47.635Z,29.00
2022-08-02T13:41:33.813Z,29.00
2022-08-02T13:44:19.779Z,29.20
2022-08-02T13:47:06.325Z,29.30
2022-08-02T13:49:53.360Z,29.30
2022-08-02T13:52:39.462Z,29.20
2022-08-02T13:55:25.493Z,29.10
2022-08-02T13:58:11.618Z,29.00
2022-08-02T14:00:57.510Z,28.80
2022-08-02T14:04:05.741Z,28.80
2022-08-02T14:06:50.195Z,28.70
2022-08-02T14:09:36.583Z,28.60
2022-08-02T14:12:22.802Z,28.40
2022-08-02T14:15:09.493Z,28.40
2022-08-02T14:17:55.714Z,28.40
2022-08-02T14:20:43.586Z,28.50
2022-08-02T14:23:49.309Z,28.70
2022-08-02T14:26:37.840Z,28.80
2022-08-02T14:29:24.162Z,28.90
2022-08-02T14:32:10.750Z,28.90
2022-08-02T14:34:56.923Z,28.90
2022-08-02T14:37:42.973Z,28.80
2022-08-02T14:40:31.306Z,28.70
2022-08-02T14:43:36.421Z,28.60
2022-08-02T14:46:22.381Z,28.50
2022-08-02T14:49:10.162Z,28.50
2022-08-02T14:51:56.556Z,28.60
2022-08-02T14:54:43.192Z,28.70
2022-08-02T14:57:28.915Z,28.70
2022-08-02T15:00:17.785Z,28.70
2022-08-02T15:03:04.029Z,28.80
2022-08-02T15:05:55.640Z,28.80
2022-08-02T15:08:41.581Z,28.80
2022-08-02T15:11:27.846Z,28.60
2022-08-02T15:14:13.852Z,28.60
2022-08-02T15:16:59.850Z,28.50
2022-08-02T15:19:59.308Z,28.50
2022-08-02T15:22:49.361Z,28.50
2022-08-02T15:25:41.073Z,28.50
2022-08-02T15:28:29.643Z,28.50
2022-08-02T15:31:22.287Z,28.50
2022-08-02T15:34:19.059Z,28.50
2022-08-02T15:37:05.341Z,28.30
2022-08-02T15:39:51.466Z,28.40
2022-08-02T15:42:37.518Z,28.40
2022-08-02T15:45:25.417Z,28.30
2022-08-02T15:48:12.155Z,28.20
2022-08-02T15:50:58.601Z,28.20
2022-08-02T15:53:44.687Z,28.30
2022-08-02T15:56:35.590Z,28.20
2022-08-02T15:59:21.670Z,28.20
2022-08-02T16:02:07.770Z,28.10
2022-08-02T16:04:53.966Z,28.10
2022-08-02T16:07:41.206Z,28.10
2022-08-02T16:10:28.025Z,28.10
2022-08-02T16:13:53.368Z,28.00
2022-08-02T16:16:40.410Z,27.90
2022-08-02T16:19:47.551Z,27.90
2022-08-02T16:22:33.485Z,27.90
2022-08-02T16:25:19.856Z,27.90
2022-08-02T16:28:08.103Z,27.90
2022-08-02T16:31:10.119Z,27.90
2022-08-02T16:33:58.145Z,27.90
2022-08-02T16:36:44.916Z,27.90
2022-08-02T16:39:30.828Z,27.80
2022-08-02T16:42:16.966Z,27.80
2022-08-02T16:45:12.100Z,27.80
2022-08-02T16:48:03.809Z,27.80
2022-08-02T16:50:51.851Z,27.80
2022-08-02T16:54:00.700Z,27.80
2022-08-02T16:56:44.337Z,27.70
2022-08-02T17:02:40.391Z,27.60
2022-08-02T17:05:37.553Z,27.60
2022-08-02T17:08:24.634Z,27.60
2022-08-02T17:11:18.238Z,27.60
2022-08-02T17:14:04.110Z,27.50
2022-08-02T17:16:50.175Z,27.50
2022-08-02T17:19:38.322Z,27.50
2022-08-02T17:22:24.735Z,27.40
2022-08-02T17:25:14.454Z,27.40
2022-08-02T17:28:01.105Z,27.30
2022-08-02T17:30:47.207Z,27.30
2022-08-02T17:33:34.783Z,27.20
2022-08-02T17:36:22.825Z,27.20
2022-08-02T17:39:08.926Z,27.20
2022-08-02T17:41:55.153Z,27.10
2022-08-02T17:44:41.119Z,27.00
2022-08-02T17:47:31.582Z,27.00
2022-08-02T17:50:28.123Z,26.90
2022-08-02T17:53:14.414Z,26.80
2022-08-02T17:56:01.285Z,26.70
2022-08-02T17:58:54.045Z,26.70
2022-08-02T18:01:42.155Z,26.70
2022-08-02T18:04:39.448Z,26.60
2022-08-02T18:07:26.028Z,26.60
2022-08-02T18:10:31.817Z,26.50
2022-08-02T18:13:17.712Z,26.50
2022-08-02T18:16:04.088Z,26.40
2022-08-02T18:18:50.774Z,26.30
2022-08-02T18:21:37.062Z,26.30
2022-08-02T18:24:23.954Z,26.20
2022-08-02T18:27:10.774Z,26.20
2022-08-02T18:30:00.365Z,26.10
2022-08-02T18:33:59.086Z,26.10
2022-08-02T18:35:56.832Z,26.00
2022-08-02T18:38:45.787Z,26.00
2022-08-02T18:41:34.089Z,25.90
2022-08-02T18:44:21.253Z,25.70
2022-08-02T18:47:08.769Z,25.60
2022-08-02T18:49:56.303Z,25.40
2022-08-02T18:52:43.472Z,25.30
2022-08-02T18:55:59.675Z,25.20
2022-08-02T18:58:40.404Z,25.10
2022-08-02T19:01:33.562Z,24.90
2022-08-02T19:04:27.462Z,24.80
2022-08-02T19:07:14.289Z,24.70
2022-08-02T19:10:00.173Z,24.60
2022-08-02T19:12:46.492Z,24.50
2022-08-02T19:15:38.442Z,24.40
2022-08-02T19:18:27.061Z,24.30
2022-08-02T19:21:17.131Z,24.20
2022-08-02T19:24:23.234Z,24.20
2022-08-02T19:27:14.016Z,24.10
2022-08-02T19:33:20.374Z,23.90
2022-08-02T19:36:18.162Z,23.80
2022-08-02T19:39:05.688Z,23.80
2022-08-02T19:41:53.979Z,23.60
2022-08-02T19:44:44.988Z,23.50
2022-08-02T19:47:38.624Z,23.30
2022-08-02T19:50:25.831Z,23.20
2022-08-02T19:53:12.266Z,23.00
2022-08-02T19:56:02.992Z,22.90
2022-08-02T20:01:57.004Z,22.80
2022-08-02T20:04:42.987Z,22.70
2022-08-02T20:07:54.758Z,22.60
2022-08-02T20:10:45.930Z,22.70
2022-08-02T20:13:34.708Z,22.70
2022-08-02T20:16:35.380Z,22.70
2022-08-02T20:19:21.808Z,22.80
2022-08-02T20:22:08.283Z,22.50
2022-08-02T20:24:54.473Z,22.30
2022-08-02T20:27:40.423Z,22.20
2022-08-02T20:30:37.991Z,22.20
2022-08-02T20:33:24.159Z,22.30
2022-08-02T20:36:10.055Z,22.40
2022-08-02T20:38:56.394Z,22.30
2022-08-02T20:41:45.840Z,22.10
2022-08-02T20:44:34.502Z,22.10
2022-08-02T20:47:28.468Z,22.00
2022-08-02T20:50:45.034Z,21.90
2022-08-02T20:53:31.016Z,21.70
2022-08-02T20:56:17.154Z,21.60
2022-08-02T20:59:15.534Z,21.70
2022-08-02T21:02:02.067Z,21.80
2022-08-02T21:04:48.535Z,21.80
2022-08-02T21:07:36.633Z,21.80
2022-08-02T21:10:24.336Z,21.70
2022-08-02T21:13:19.057Z,21.70
2022-08-02T21:16:09.284Z,21.70
2022-08-02T21:19:00.040Z,21.70
2022-08-02T21:21:46.534Z,21.80
2022-08-02T21:24:32.533Z,21.70
2022-08-02T21:30:24.862Z,21.70
2022-08-02T21:33:23.271Z,21.60
2022-08-02T21:36:10.275Z,21.60
2022-08-02T21:38:57.932Z,21.40
2022-08-02T21:41:46.243Z,21.40
2022-08-02T21:44:33.213Z,21.30
2022-08-02T21:47:28.063Z,21.20
2022-08-02T21:50:15.807Z,21.20
2022-08-02T21:53:02.827Z,21.20
2022-08-02T21:55:59.953Z,21.00
2022-08-02T21:58:47.309Z,20.90
2022-08-02T22:01:35.867Z,20.60
2022-08-02T22:04:22.388Z,20.50
2022-08-02T22:07:08.349Z,20.20
2022-08-02T22:09:55.524Z,20.20
2022-08-02T22:12:41.865Z,20.20
2022-08-02T22:15:36.021Z,20.40
2022-08-02T22:18:29.350Z,20.40
2022-08-02T22:21:17.114Z,20.50
2022-08-02T22:24:05.445Z,20.50
2022-08-02T22:26:59.280Z,20.50
2022-08-02T22:29:45.505Z,20.60
2022-08-02T22:32:51.527Z,20.50
2022-08-02T22:35:37.519Z,20.60
2022-08-02T22:38:25.971Z,20.60
2022-08-02T22:41:15.988Z,20.50
2022-08-02T22:44:02.274Z,20.40
2022-08-02T22:46:49.959Z,20.20
2022-08-02T22:49:37.874Z,20.20
2022-08-02T22:52:30.564Z,20.20
2022-08-02T22:55:16.428Z,20.20
2022-08-02T22:58:02.495Z,20.10
2022-08-02T22:58:49.768Z,27.70
2022-08-02T22:58:54.020Z,22.90
2022-08-02T22:58:57.183Z,24.00
2022-08-02T22:59:12.606Z,21.70
2022-08-02T23:00:49.466Z,20.10
2022-08-02T23:03:38.423Z,20.10
2022-08-02T23:06:24.737Z,20.00
2022-08-02T23:09:10.652Z,20.00
2022-08-02T23:11:56.576Z,20.00
2022-08-02T23:14:42.615Z,20.00
2022-08-02T23:17:46.925Z,20.10
2022-08-02T23:20:33.460Z,20.00
2022-08-02T23:23:19.758Z,20.00
2022-08-02T23:26:05.874Z,19.80
2022-08-02T23:28:52.026Z,19.60
2022-08-02T23:31:38.439Z,19.50
2022-08-02T23:34:24.373Z,19.50
2022-08-02T23:37:11.856Z,19.30
2022-08-02T23:39:57.965Z,19.20
2022-08-02T23:42:43.891Z,19.10
2022-08-02T23:45:34.963Z,19.10
2022-08-02T23:48:23.837Z,19.00
2022-08-02T23:51:09.718Z,19.00
2022-08-02T23:54:05.421Z,18.90
2022-08-02T23:56:52.329Z,19.00
2022-08-02T23:59:38.203Z,19.00
